Terminal Aerodrome Forecast
Issued by NWS

Home | Current Version | Previous Version | Text Only | Print | Product List | Glossary On
Versions: 1 2 3 4 5 6 7 8 9 10 11 12 13 14 15 16 17 18
000
FTUS46 KSGX 211129
TAFONT
TAF
KONT 211129Z 2112/2218 27006KT P6SM BKN015 BKN025
     FM211700 26005KT P6SM SCT015 BKN025
     FM212100 25011G18KT P6SM SCT025 SCT035
     FM220400 26006KT P6SM BKN025
     FM220700 VRB04KT P6SM OVC018
     FM221700 VRB04KT P6SM SCT020=

USA.gov is the U.S. government's official web portal to all federal, state and local government web resources and services.